Time;durP1;ratioP1;P1;durP2;ratioP2;P2;SDS_P1;SDS_P2;PMS_P1;PMS_P2;Temp;Humidity;BMP_temperature;BMP_pressure;BME280_temperature;BME280_humidity;BME280_pressure;Samples;Min_cycle;Max_cycle;Signal;HPM_P1;HPM_P2
2022/09/15 00:02:09;;;;;;;2.15;1.52;;;13.30;99.90;;;;;;5034697;28;20037;-80
2022/09/15 00:04:35;;;;;;;3.20;1.55;;;13.20;99.90;;;;;;5035018;28;20040;-80
2022/09/15 00:07:00;;;;;;;1.60;1.50;;;13.20;99.90;;;;;;5035176;28;20121;-80
2022/09/15 00:09:26;;;;;;;3.05;1.80;;;13.20;99.90;;;;;;5034667;28;20032;-80
2022/09/15 00:11:52;;;;;;;2.75;1.88;;;13.10;99.90;;;;;;5052256;28;20041;-80
2022/09/15 00:14:17;;;;;;;3.28;2.13;;;13.20;99.90;;;;;;5052623;28;20040;-80
2022/09/15 00:16:43;;;;;;;2.05;1.70;;;13.00;99.90;;;;;;5052762;28;20033;-80
2022/09/15 00:19:09;;;;;;;7.22;2.08;;;13.00;99.90;;;;;;5052756;28;20455;-80
2022/09/15 00:21:37;;;;;;;3.00;1.90;;;12.90;99.90;;;;;;5052713;28;20087;-80
2022/09/15 00:24:03;;;;;;;4.32;1.85;;;12.90;99.90;;;;;;5052833;28;20455;-80
2022/09/15 00:26:29;;;;;;;1.98;1.77;;;12.90;99.90;;;;;;5035020;28;20040;-80
2022/09/15 00:28:56;;;;;;;2.90;1.77;;;12.80;99.90;;;;;;5052641;28;20085;-80
2022/09/15 00:31:24;;;;;;;4.20;2.05;;;12.80;99.90;;;;;;5052291;28;20124;-80
2022/09/15 00:33:52;;;;;;;5.10;2.03;;;12.80;99.90;;;;;;5051793;28;20040;-80
2022/09/15 00:36:19;;;;;;;3.40;2.00;;;12.80;99.90;;;;;;5034852;28;20056;-80
2022/09/15 00:38:45;;;;;;;3.22;2.10;;;12.70;99.90;;;;;;5018328;28;20044;-80
2022/09/15 00:41:18;;;;;;;3.17;2.22;;;12.70;99.90;;;;;;5034438;28;20110;-80
2022/09/15 00:44:01;;;;;;;3.88;2.33;;;12.60;99.90;;;;;;5034541;28;20098;-80
2022/09/15 00:46:29;;;;;;;3.80;2.55;;;12.60;99.90;;;;;;5018074;28;20044;-79
2022/09/15 00:49:12;;;;;;;6.05;2.88;;;12.60;99.90;;;;;;5034333;28;20543;-79
2022/09/15 00:51:45;;;;;;;6.72;2.85;;;12.60;99.90;;;;;;5051999;28;20041;-79
2022/09/15 00:54:16;;;;;;;4.80;2.78;;;12.70;99.90;;;;;;5034426;28;20037;-79
2022/09/15 00:56:44;;;;;;;3.97;2.97;;;12.70;99.90;;;;;;5034156;28;20075;-80
2022/09/15 00:59:17;;;;;;;6.53;3.70;;;12.70;99.90;;;;;;5034514;28;20076;-80
2022/09/15 01:01:44;;;;;;;6.20;3.50;;;12.80;99.90;;;;;;5033851;28;20045;-79
2022/09/15 01:04:12;;;;;;;7.80;4.10;;;12.70;99.90;;;;;;5017678;28;20037;-79
2022/09/15 01:06:44;;;;;;;5.72;3.30;;;12.80;99.90;;;;;;5052059;28;20094;-79
2022/09/15 01:09:35;;;;;;;7.25;3.90;;;12.80;99.90;;;;;;5034222;28;20041;-79
2022/09/15 01:12:01;;;;;;;10.38;4.05;;;12.90;99.90;;;;;;5033798;28;20095;-79
2022/09/15 01:14:27;;;;;;;5.60;3.17;;;12.90;99.90;;;;;;5017609;28;20402;-79
2022/09/15 01:17:18;;;;;;;5.97;3.75;;;12.90;99.90;;;;;;5017285;28;20073;-79
2022/09/15 01:20:09;;;;;;;9.10;3.72;;;12.90;99.90;;;;;;5017957;28;20076;-79
2022/09/15 01:23:17;;;;;;;11.98;3.65;;;12.90;99.90;;;;;;5033657;28;20132;-79
2022/09/15 01:26:09;;;;;;;6.05;3.58;;;12.90;99.90;;;;;;4980824;28;20053;-79
2022/09/15 01:28:44;;;;;;;10.45;3.10;;;12.90;99.90;;;;;;5017661;28;20041;-79
2022/09/15 01:31:24;;;;;;;6.05;3.70;;;12.90;99.90;;;;;;5017532;28;20045;-79
2022/09/15 01:34:15;;;;;;;5.07;3.40;;;12.90;99.90;;;;;;5017347;28;20561;-79
2022/09/15 01:36:52;;;;;;;7.35;3.05;;;12.90;99.90;;;;;;5033870;28;20043;-79
2022/09/15 01:39:24;;;;;;;7.70;2.80;;;12.90;99.90;;;;;;5039533;28;20076;-78
2022/09/15 01:41:54;;;;;;;6.70;3.20;;;12.90;99.90;;;;;;5034996;28;20079;-79
2022/09/15 01:44:42;;;;;;;5.75;3.03;;;12.90;99.90;;;;;;5033606;28;20100;-79
2022/09/15 01:47:10;;;;;;;8.45;3.30;;;12.90;99.90;;;;;;5021530;28;20044;-79
2022/09/15 01:50:10;;;;;;;6.13;3.00;;;12.90;99.90;;;;;;5021800;28;20048;-79
2022/09/15 01:52:39;;;;;;;6.00;2.65;;;12.90;99.90;;;;;;5023694;28;20044;-79
2022/09/15 01:55:13;;;;;;;4.57;3.25;;;12.90;99.90;;;;;;5038881;28;20029;-79
2022/09/15 01:57:38;;;;;;;6.07;2.53;;;12.80;99.90;;;;;;5056416;28;20051;-79
2022/09/15 02:00:05;;;;;;;4.05;3.22;;;12.80;99.90;;;;;;5022052;28;20132;-79
2022/09/15 02:02:48;;;;;;;4.43;2.97;;;12.80;99.90;;;;;;5037852;28;20051;-79
2022/09/15 02:05:24;;;;;;;5.50;3.05;;;12.70;99.90;;;;;;5037793;28;20460;-79
2022/09/15 02:08:18;;;;;;;5.45;2.80;;;12.70;99.90;;;;;;5021843;28;20036;-79
2022/09/15 02:11:01;;;;;;;4.38;2.72;;;12.70;99.90;;;;;;5038867;28;20048;-79
2022/09/15 02:13:56;;;;;;;5.78;2.75;;;12.80;99.90;;;;;;5021112;28;20041;-79
2022/09/15 02:16:26;;;;;;;6.05;2.67;;;12.80;99.90;;;;;;5056277;28;20045;-79
2022/09/15 02:19:01;;;;;;;6.95;2.85;;;12.80;99.90;;;;;;5022204;28;20136;-79
2022/09/15 02:21:35;;;;;;;5.70;2.63;;;12.80;99.90;;;;;;5038441;28;20033;-79
2022/09/15 02:24:06;;;;;;;6.93;3.58;;;12.80;99.90;;;;;;5021614;28;20079;-79
2022/09/15 02:26:34;;;;;;;5.50;2.57;;;12.90;99.90;;;;;;5021143;28;20045;-79
2022/09/15 02:29:05;;;;;;;4.60;3.22;;;12.90;99.90;;;;;;5020377;28;20485;-79
2022/09/15 02:31:33;;;;;;;10.60;3.13;;;12.90;99.90;;;;;;5053951;28;20489;-79
2022/09/15 02:34:29;;;;;;;6.10;2.58;;;12.90;99.90;;;;;;5053570;28;20041;-79
2022/09/15 02:36:55;;;;;;;6.40;2.75;;;12.90;99.90;;;;;;5029201;28;20049;-79
2022/09/15 02:39:26;;;;;;;7.97;2.78;;;12.90;99.90;;;;;;5035610;28;20037;-79
2022/09/15 02:41:52;;;;;;;7.20;2.30;;;12.90;99.90;;;;;;5036405;28;20044;-81
2022/09/15 02:44:18;;;;;;;9.38;2.60;;;12.90;99.90;;;;;;5055529;28;20094;-80
2022/09/15 02:46:44;;;;;;;4.68;2.30;;;12.90;99.90;;;;;;5054949;28;20445;-80
2022/09/15 02:49:09;;;;;;;6.20;2.53;;;13.00;99.90;;;;;;5036964;28;20037;-81
2022/09/15 02:51:35;;;;;;;5.35;2.53;;;13.00;99.90;;;;;;5054288;28;20104;-81
2022/09/15 02:54:01;;;;;;;6.60;2.50;;;13.00;99.90;;;;;;5054192;28;20033;-80
2022/09/15 02:56:26;;;;;;;6.10;2.50;;;13.00;99.90;;;;;;5053564;28;20041;-80
2022/09/15 02:58:52;;;;;;;6.47;2.35;;;13.10;99.90;;;;;;5036237;28;20033;-80
2022/09/15 03:01:18;;;;;;;9.98;2.40;;;13.20;99.90;;;;;;5054149;28;20037;-81
2022/09/15 03:03:44;;;;;;;5.45;2.40;;;13.00;99.90;;;;;;5036120;28;20045;-81
2022/09/15 03:06:15;;;;;;;5.88;1.98;;;13.20;99.90;;;;;;5036201;28;20041;-80
2022/09/15 03:08:46;;;;;;;5.63;2.38;;;13.20;99.90;;;;;;5019013;28;20048;-80
2022/09/15 03:11:12;;;;;;;4.22;2.17;;;13.20;99.90;;;;;;5019059;28;20072;-80
2022/09/15 03:13:38;;;;;;;4.25;1.95;;;13.20;99.90;;;;;;5019750;28;20155;-80
2022/09/15 03:16:08;;;;;;;7.45;2.13;;;13.20;99.90;;;;;;5036239;28;20044;-79
2022/09/15 03:18:35;;;;;;;5.72;1.70;;;13.30;99.90;;;;;;5036248;28;20045;-79
2022/09/15 03:21:01;;;;;;;9.20;2.03;;;13.30;99.90;;;;;;5019601;28;20037;-79
2022/09/15 03:23:27;;;;;;;5.30;1.90;;;13.30;99.90;;;;;;5035104;28;20068;-79
2022/09/15 03:25:53;;;;;;;6.32;1.85;;;13.30;99.90;;;;;;5019469;28;20436;-79
2022/09/15 03:28:19;;;;;;;6.20;1.60;;;13.40;99.90;;;;;;5053984;28;20048;-79
2022/09/15 03:30:45;;;;;;;7.25;1.60;;;13.30;99.90;;;;;;5035827;28;20033;-79
2022/09/15 03:33:10;;;;;;;6.57;1.55;;;13.30;99.90;;;;;;5036094;28;20044;-79
2022/09/15 03:35:36;;;;;;;2.40;1.45;;;13.30;99.90;;;;;;5036149;28;20041;-79
2022/09/15 03:38:02;;;;;;;5.97;1.50;;;13.40;99.90;;;;;;5054334;28;20138;-79
2022/09/15 03:40:27;;;;;;;3.20;1.98;;;13.40;99.90;;;;;;5035982;28;20051;-79
2022/09/15 03:42:53;;;;;;;7.93;1.73;;;13.40;99.90;;;;;;5035841;28;20037;-78
2022/09/15 03:45:19;;;;;;;2.60;1.13;;;13.50;99.90;;;;;;5037102;28;20083;-78
2022/09/15 03:47:44;;;;;;;5.03;1.42;;;13.30;99.90;;;;;;5035858;28;20045;-78
2022/09/15 03:50:10;;;;;;;2.85;1.70;;;13.40;99.90;;;;;;5054947;28;20132;-78
2022/09/15 03:52:35;;;;;;;3.70;1.48;;;13.40;99.90;;;;;;5037332;28;20119;-78
2022/09/15 03:55:01;;;;;;;6.95;1.70;;;13.40;99.90;;;;;;5020761;28;20044;-78
2022/09/15 03:57:27;;;;;;;5.35;1.38;;;13.40;99.90;;;;;;5037479;28;20081;-78
2022/09/15 03:59:52;;;;;;;4.90;1.30;;;13.40;99.90;;;;;;5020964;28;20037;-78
2022/09/15 04:02:18;;;;;;;5.20;1.40;;;13.50;99.90;;;;;;5036777;28;20048;-78
2022/09/15 04:04:43;;;;;;;10.85;1.52;;;13.50;99.90;;;;;;5037473;28;20048;-79
2022/09/15 04:07:09;;;;;;;4.07;1.52;;;13.50;99.90;;;;;;5037417;28;20045;-78
2022/09/15 04:09:36;;;;;;;6.30;1.40;;;13.50;99.90;;;;;;5019732;28;20041;-78
2022/09/15 04:12:02;;;;;;;6.18;1.23;;;13.40;99.90;;;;;;5036045;28;20060;-78
2022/09/15 04:14:28;;;;;;;4.30;1.40;;;13.50;99.90;;;;;;5036998;28;20049;-78
2022/09/15 04:16:53;;;;;;;4.63;1.20;;;13.40;99.90;;;;;;5054682;28;20025;-79
2022/09/15 04:19:19;;;;;;;6.13;1.13;;;13.40;99.90;;;;;;5020795;28;20136;-80
2022/09/15 04:21:46;;;;;;;3.38;1.10;;;13.30;99.90;;;;;;5047706;28;20037;-78
2022/09/15 04:24:12;;;;;;;2.70;1.23;;;13.40;99.90;;;;;;5043393;28;20044;-78
2022/09/15 04:26:38;;;;;;;6.38;1.33;;;13.40;99.90;;;;;;5078451;28;20041;-78
2022/09/15 04:29:09;;;;;;;5.85;1.20;;;13.30;99.90;;;;;;5077739;28;20044;-78
2022/09/15 04:31:35;;;;;;;10.68;1.13;;;13.30;99.90;;;;;;5060470;28;20029;-78
2022/09/15 04:34:01;;;;;;;4.30;1.05;;;13.40;99.90;;;;;;5059954;28;20199;-78
2022/09/15 04:36:28;;;;;;;6.82;1.35;;;13.40;99.90;;;;;;5043145;28;20040;-77
2022/09/15 04:38:54;;;;;;;8.07;1.50;;;13.40;99.90;;;;;;5059802;28;20075;-80
2022/09/15 04:41:20;;;;;;;0.95;0.70;;;13.30;99.90;;;;;;5059360;28;20033;-81
2022/09/15 04:43:46;;;;;;;5.57;1.13;;;13.40;99.90;;;;;;5043093;28;20064;-81
2022/09/15 04:46:13;;;;;;;4.35;1.23;;;13.30;99.90;;;;;;5050938;28;20115;-80
2022/09/15 04:48:39;;;;;;;4.28;1.27;;;13.30;99.90;;;;;;5017494;28;20041;-80
2022/09/15 04:51:09;;;;;;;6.35;1.48;;;13.40;99.90;;;;;;5017071;28;20446;-80
2022/09/15 04:53:36;;;;;;;3.25;1.10;;;13.40;99.90;;;;;;5017182;28;20091;-81
2022/09/15 04:56:13;;;;;;;3.70;1.67;;;13.20;99.90;;;;;;5017241;28;20033;-80
2022/09/15 04:58:44;;;;;;;3.35;0.90;;;13.30;99.90;;;;;;5017139;28;20072;-80
2022/09/15 05:01:12;;;;;;;4.72;0.90;;;13.30;99.90;;;;;;5017065;28;20098;-80
2022/09/15 05:03:38;;;;;;;4.20;1.20;;;13.30;99.90;;;;;;5033245;28;20423;-80
2022/09/15 05:06:11;;;;;;;11.93;0.85;;;13.20;99.90;;;;;;5017591;28;20040;-80
2022/09/15 05:08:37;;;;;;;4.05;0.77;;;13.40;99.90;;;;;;5033508;28;20037;-80
2022/09/15 05:11:08;;;;;;;5.07;1.13;;;13.30;99.90;;;;;;5016996;28;20037;-80
2022/09/15 05:13:35;;;;;;;7.57;1.05;;;13.30;99.90;;;;;;5033164;28;20033;-80
2022/09/15 05:16:05;;;;;;;3.38;0.80;;;13.20;99.90;;;;;;5033331;28;20056;-80
2022/09/15 05:18:32;;;;;;;8.15;0.73;;;13.30;99.90;;;;;;5017325;28;20037;-81
2022/09/15 05:21:01;;;;;;;3.78;0.75;;;13.30;99.90;;;;;;5054899;28;20092;-80
2022/09/15 05:23:27;;;;;;;4.28;1.25;;;13.30;99.90;;;;;;5055226;28;20047;-80
2022/09/15 05:25:58;;;;;;;8.82;1.50;;;13.30;99.90;;;;;;5055395;28;20029;-80
2022/09/15 05:28:24;;;;;;;5.60;0.98;;;13.30;99.90;;;;;;5037015;28;20048;-80
2022/09/15 05:30:54;;;;;;;7.40;1.35;;;13.20;99.90;;;;;;5055237;28;20110;-81
2022/09/15 05:33:21;;;;;;;7.15;1.00;;;13.30;99.90;;;;;;5036768;28;20045;-80
2022/09/15 05:35:57;;;;;;;5.28;0.95;;;13.40;99.90;;;;;;5036983;28;20120;-80
2022/09/15 05:38:26;;;;;;;5.50;0.95;;;13.40;99.90;;;;;;5020703;28;20037;-80
2022/09/15 05:40:52;;;;;;;8.60;0.90;;;13.50;99.90;;;;;;5054830;28;20469;-80
2022/09/15 05:43:18;;;;;;;5.45;1.08;;;13.40;99.90;;;;;;5054440;28;20064;-80
2022/09/15 05:45:52;;;;;;;5.38;0.93;;;13.40;99.90;;;;;;5036593;28;20083;-80
2022/09/15 05:48:18;;;;;;;4.70;1.00;;;13.40;99.90;;;;;;5054440;28;20472;-80
2022/09/15 05:50:48;;;;;;;6.10;1.08;;;13.50;99.90;;;;;;5036442;28;20033;-81
2022/09/15 05:53:14;;;;;;;5.97;1.20;;;13.50;99.90;;;;;;5054070;28;20083;-79
2022/09/15 05:55:40;;;;;;;3.60;1.00;;;13.40;99.90;;;;;;5054424;28;20049;-79
2022/09/15 05:58:05;;;;;;;4.07;0.65;;;13.50;99.90;;;;;;5036617;28;20051;-79
2022/09/15 06:00:32;;;;;;;5.50;0.82;;;13.50;99.90;;;;;;5054892;28;20045;-79
2022/09/15 06:02:57;;;;;;;4.20;0.93;;;13.50;99.90;;;;;;5053589;28;20045;-79
2022/09/15 06:05:23;;;;;;;1.77;0.60;;;13.50;99.90;;;;;;5054288;28;20081;-79
2022/09/15 06:07:52;;;;;;;4.82;0.90;;;13.60;99.90;;;;;;5052518;28;20147;-79
2022/09/15 06:10:18;;;;;;;7.47;1.10;;;13.60;99.90;;;;;;5037037;28;20045;-79
2022/09/15 06:12:44;;;;;;;4.72;1.10;;;13.70;99.90;;;;;;5030423;28;20044;-79
2022/09/15 06:15:11;;;;;;;3.72;0.68;;;13.80;99.90;;;;;;5038297;28;20477;-79
2022/09/15 06:17:37;;;;;;;6.95;1.85;;;13.80;99.90;;;;;;5055266;28;20112;-79
2022/09/15 06:20:05;;;;;;;2.65;1.25;;;13.80;99.90;;;;;;5037667;28;20524;-79
2022/09/15 06:22:31;;;;;;;4.53;1.48;;;13.90;99.90;;;;;;5055559;28;20044;-79
2022/09/15 06:24:58;;;;;;;3.08;0.88;;;14.00;99.90;;;;;;5037539;28;20049;-79
2022/09/15 06:27:23;;;;;;;6.30;1.65;;;14.00;99.90;;;;;;5055116;28;20176;-79
2022/09/15 06:29:49;;;;;;;6.40;1.20;;;14.10;99.90;;;;;;5055250;28;20148;-79
2022/09/15 06:32:14;;;;;;;3.05;0.70;;;14.10;99.90;;;;;;5036473;28;20052;-79
2022/09/15 06:34:40;;;;;;;9.35;0.98;;;14.20;99.90;;;;;;5021252;28;20166;-79
2022/09/15 06:37:06;;;;;;;6.70;1.20;;;14.30;99.90;;;;;;5054766;28;20401;-79
2022/09/15 06:39:32;;;;;;;7.55;1.50;;;14.40;99.90;;;;;;5055001;28;20056;-79
2022/09/15 06:41:57;;;;;;;8.57;2.25;;;14.40;99.90;;;;;;5019503;28;20041;-79
2022/09/15 06:44:23;;;;;;;4.50;0.75;;;14.40;99.90;;;;;;5053711;28;20517;-79
2022/09/15 06:46:49;;;;;;;4.00;0.65;;;14.40;99.90;;;;;;5035822;28;20041;-79
2022/09/15 06:49:15;;;;;;;4.18;0.85;;;14.50;99.90;;;;;;5035569;28;20049;-79
2022/09/15 06:51:40;;;;;;;5.28;1.00;;;14.50;99.90;;;;;;5018901;28;20133;-79
2022/09/15 06:54:06;;;;;;;5.40;1.05;;;14.60;99.90;;;;;;5035497;28;20043;-79
2022/09/15 06:56:32;;;;;;;5.57;0.80;;;14.60;99.90;;;;;;5035400;28;20033;-79
2022/09/15 06:58:58;;;;;;;4.68;1.00;;;14.70;99.90;;;;;;5035646;28;20048;-79
2022/09/15 07:01:30;;;;;;;4.03;0.63;;;14.80;99.90;;;;;;5018306;28;20049;-80
2022/09/15 07:03:57;;;;;;;5.18;1.58;;;14.80;99.90;;;;;;5035531;28;20052;-79
2022/09/15 07:06:26;;;;;;;6.90;1.20;;;15.00;99.90;;;;;;5035304;28;20091;-79
2022/09/15 07:08:52;;;;;;;4.25;0.98;;;15.00;99.90;;;;;;5035679;28;20044;-79
2022/09/15 07:11:19;;;;;;;3.90;1.13;;;15.20;99.90;;;;;;5053410;28;20072;-80
2022/09/15 07:13:46;;;;;;;4.78;0.70;;;15.30;99.90;;;;;;5018829;28;20057;-79
2022/09/15 07:16:13;;;;;;;4.70;1.00;;;15.30;99.90;;;;;;5019183;28;20656;-79
2022/09/15 07:18:38;;;;;;;6.05;0.93;;;15.40;99.90;;;;;;5053061;28;20413;-72
2022/09/15 07:21:07;;;;;;;6.13;1.48;;;15.50;99.90;;;;;;5052908;28;20037;-79
2022/09/15 07:23:34;;;;;;;3.05;0.70;;;15.60;99.90;;;;;;5018682;28;20041;-79
2022/09/15 07:26:23;;;;;;;8.02;1.10;;;15.70;99.90;;;;;;5035206;28;20116;-79
2022/09/15 07:28:52;;;;;;;6.75;0.90;;;15.80;99.90;;;;;;5018626;28;20094;-80
2022/09/15 07:31:20;;;;;;;4.97;0.82;;;15.80;99.90;;;;;;5018814;28;20056;-79
2022/09/15 07:33:46;;;;;;;5.63;1.30;;;16.00;99.90;;;;;;5034998;28;20047;-79
2022/09/15 07:36:12;;;;;;;10.75;1.88;;;16.10;99.90;;;;;;5035846;28;20037;-79
2022/09/15 07:38:40;;;;;;;4.85;1.10;;;16.20;99.90;;;;;;5034812;28;20033;-79
2022/09/15 07:41:11;;;;;;;5.70;0.82;;;16.40;99.90;;;;;;5035686;28;20041;-80
2022/09/15 07:43:38;;;;;;;4.05;1.13;;;16.50;99.90;;;;;;5035168;28;20065;-79
2022/09/15 07:46:05;;;;;;;9.10;1.10;;;16.60;99.90;;;;;;5019277;28;20049;-80
2022/09/15 07:48:31;;;;;;;5.78;0.93;;;16.70;99.90;;;;;;5036774;28;20060;-80
2022/09/15 07:50:58;;;;;;;5.68;1.38;;;16.80;99.90;;;;;;5026419;28;20033;-79
2022/09/15 07:53:26;;;;;;;5.95;1.33;;;16.90;99.90;;;;;;5060912;28;20028;-79
2022/09/15 07:55:52;;;;;;;8.73;1.15;;;16.90;99.90;;;;;;5060588;28;20057;-79
2022/09/15 07:58:18;;;;;;;7.07;0.90;;;16.90;99.90;;;;;;5060801;28;20051;-79
2022/09/15 08:00:44;;;;;;;5.32;0.98;;;16.90;99.90;;;;;;5044423;28;20036;-82
2022/09/15 08:03:11;;;;;;;6.28;1.00;;;17.10;99.90;;;;;;5060861;28;20025;-81
2022/09/15 08:05:37;;;;;;;5.55;1.10;;;17.20;99.90;;;;;;5060436;28;20029;-81
